Shubert, Nebraska
Current Conditions -  °F | °C
As of 7:53 AM on Saturday 20 Dec 2014 (Local Time) from KFNB Reporting Station
Overcast Overcast  
Wind Chill: 28°   Ceiling: 1000
Heat Index: 33°   Visibility: 9mi
Dew Point: 30°   Wind: 6mph
Humidity: 89%   Direction: 160°SSE
Pressure: 30.13"   Gusts: NA
Location:  40.24°N, 95.68°W
Report Text: KFNB 201353Z AUTO 16005KT 9SM OVC010 01/M01 A3013 RMK AO2 SLP211 T00061011
Loading
Personal Weather Stations






























Interactive Weather Map New forecast layout! Learn more

10-Day Weather Forecast

Advertisements
Track Severe Weather on mobile